sensor_id;sensor_type;location;lat;lon;timestamp;P1;durP1;ratioP1;P2;durP2;ratioP2
17595;SDS011;8916;47.086;15.920;2023-02-18T00:01:07;22.42;;;10.95;;
17595;SDS011;8916;47.086;15.920;2023-02-18T00:03:38;23.30;;;12.00;;
17595;SDS011;8916;47.086;15.920;2023-02-18T00:06:12;25.42;;;12.82;;
17595;SDS011;8916;47.086;15.920;2023-02-18T00:08:43;27.63;;;13.25;;
17595;SDS011;8916;47.086;15.920;2023-02-18T00:11:13;32.28;;;15.00;;
17595;SDS011;8916;47.086;15.920;2023-02-18T00:13:49;33.53;;;15.60;;
17595;SDS011;8916;47.086;15.920;2023-02-18T00:16:21;33.17;;;15.35;;
17595;SDS011;8916;47.086;15.920;2023-02-18T00:18:53;29.15;;;14.63;;
17595;SDS011;8916;47.086;15.920;2023-02-18T00:21:23;28.83;;;14.10;;
17595;SDS011;8916;47.086;15.920;2023-02-18T00:23:53;26.15;;;13.57;;
17595;SDS011;8916;47.086;15.920;2023-02-18T00:26:23;31.88;;;13.48;;
17595;SDS011;8916;47.086;15.920;2023-02-18T00:28:54;25.67;;;11.85;;
17595;SDS011;8916;47.086;15.920;2023-02-18T00:31:24;22.83;;;11.80;;
17595;SDS011;8916;47.086;15.920;2023-02-18T00:33:58;26.58;;;11.60;;
17595;SDS011;8916;47.086;15.920;2023-02-18T00:36:27;19.90;;;11.20;;
17595;SDS011;8916;47.086;15.920;2023-02-18T00:38:59;22.75;;;11.70;;
17595;SDS011;8916;47.086;15.920;2023-02-18T00:41:30;21.58;;;11.68;;
17595;SDS011;8916;47.086;15.920;2023-02-18T00:44:02;24.83;;;12.20;;
17595;SDS011;8916;47.086;15.920;2023-02-18T00:46:33;26.85;;;12.05;;
17595;SDS011;8916;47.086;15.920;2023-02-18T00:49:03;25.58;;;11.75;;
17595;SDS011;8916;47.086;15.920;2023-02-18T00:51:34;23.30;;;11.80;;
17595;SDS011;8916;47.086;15.920;2023-02-18T00:54:04;21.55;;;11.50;;
17595;SDS011;8916;47.086;15.920;2023-02-18T00:56:33;24.67;;;11.98;;
17595;SDS011;8916;47.086;15.920;2023-02-18T00:59:04;26.70;;;12.00;;
17595;SDS011;8916;47.086;15.920;2023-02-18T01:01:34;19.70;;;11.68;;
17595;SDS011;8916;47.086;15.920;2023-02-18T01:04:03;28.50;;;12.40;;
17595;SDS011;8916;47.086;15.920;2023-02-18T01:06:32;30.67;;;13.55;;
17595;SDS011;8916;47.086;15.920;2023-02-18T01:09:02;37.38;;;14.48;;
17595;SDS011;8916;47.086;15.920;2023-02-18T01:11:32;27.00;;;12.40;;
17595;SDS011;8916;47.086;15.920;2023-02-18T01:14:01;34.13;;;13.88;;
17595;SDS011;8916;47.086;15.920;2023-02-18T01:16:32;51.53;;;17.60;;
17595;SDS011;8916;47.086;15.920;2023-02-18T01:19:01;44.88;;;16.52;;
17595;SDS011;8916;47.086;15.920;2023-02-18T01:21:30;37.90;;;15.23;;
17595;SDS011;8916;47.086;15.920;2023-02-18T01:23:59;36.08;;;14.52;;
17595;SDS011;8916;47.086;15.920;2023-02-18T01:26:29;29.90;;;14.18;;
17595;SDS011;8916;47.086;15.920;2023-02-18T01:28:58;32.53;;;14.20;;
17595;SDS011;8916;47.086;15.920;2023-02-18T01:31:27;23.67;;;11.60;;
17595;SDS011;8916;47.086;15.920;2023-02-18T01:33:59;27.27;;;11.95;;
17595;SDS011;8916;47.086;15.920;2023-02-18T01:36:28;23.85;;;12.18;;
17595;SDS011;8916;47.086;15.920;2023-02-18T01:38:57;22.38;;;12.82;;
17595;SDS011;8916;47.086;15.920;2023-02-18T01:41:27;25.90;;;12.73;;
17595;SDS011;8916;47.086;15.920;2023-02-18T01:44:12;30.15;;;13.98;;
17595;SDS011;8916;47.086;15.920;2023-02-18T01:46:44;28.83;;;14.13;;
17595;SDS011;8916;47.086;15.920;2023-02-18T01:49:17;32.00;;;14.20;;
17595;SDS011;8916;47.086;15.920;2023-02-18T01:51:53;30.75;;;14.73;;
17595;SDS011;8916;47.086;15.920;2023-02-18T01:54:30;31.77;;;14.77;;
17595;SDS011;8916;47.086;15.920;2023-02-18T01:57:03;26.90;;;14.05;;
17595;SDS011;8916;47.086;15.920;2023-02-18T01:59:36;29.13;;;13.65;;
17595;SDS011;8916;47.086;15.920;2023-02-18T02:02:10;34.22;;;14.05;;
17595;SDS011;8916;47.086;15.920;2023-02-18T02:04:44;27.70;;;13.32;;
17595;SDS011;8916;47.086;15.920;2023-02-18T02:07:14;30.08;;;14.35;;
17595;SDS011;8916;47.086;15.920;2023-02-18T02:09:45;29.58;;;13.98;;
17595;SDS011;8916;47.086;15.920;2023-02-18T02:12:24;26.52;;;13.50;;
17595;SDS011;8916;47.086;15.920;2023-02-18T02:15:15;33.95;;;12.82;;
17595;SDS011;8916;47.086;15.920;2023-02-18T02:18:04;27.27;;;13.57;;
17595;SDS011;8916;47.086;15.920;2023-02-18T02:24:11;26.48;;;12.77;;
17595;SDS011;8916;47.086;15.920;2023-02-18T02:27:20;32.22;;;14.40;;
17595;SDS011;8916;47.086;15.920;2023-02-18T02:36:35;26.05;;;12.55;;
17595;SDS011;8916;47.086;15.920;2023-02-18T02:39:14;27.35;;;11.55;;
17595;SDS011;8916;47.086;15.920;2023-02-18T02:41:53;24.15;;;11.70;;
17595;SDS011;8916;47.086;15.920;2023-02-18T02:44:35;29.02;;;12.43;;
17595;SDS011;8916;47.086;15.920;2023-02-18T02:50:06;27.88;;;12.00;;
17595;SDS011;8916;47.086;15.920;2023-02-18T02:52:44;24.83;;;12.88;;
17595;SDS011;8916;47.086;15.920;2023-02-18T02:55:19;22.92;;;11.95;;
17595;SDS011;8916;47.086;15.920;2023-02-18T02:57:52;26.98;;;13.02;;
17595;SDS011;8916;47.086;15.920;2023-02-18T03:00:35;23.08;;;11.05;;
17595;SDS011;8916;47.086;15.920;2023-02-18T03:03:17;23.88;;;10.98;;
17595;SDS011;8916;47.086;15.920;2023-02-18T03:06:16;18.40;;;9.63;;
17595;SDS011;8916;47.086;15.920;2023-02-18T03:09:06;19.55;;;9.70;;
17595;SDS011;8916;47.086;15.920;2023-02-18T03:11:42;19.98;;;10.35;;
17595;SDS011;8916;47.086;15.920;2023-02-18T03:14:21;18.45;;;10.98;;
17595;SDS011;8916;47.086;15.920;2023-02-18T03:16:58;21.33;;;10.68;;
17595;SDS011;8916;47.086;15.920;2023-02-18T03:19:32;21.55;;;10.88;;
17595;SDS011;8916;47.086;15.920;2023-02-18T03:22:07;23.10;;;11.25;;
17595;SDS011;8916;47.086;15.920;2023-02-18T03:24:42;22.80;;;10.73;;
17595;SDS011;8916;47.086;15.920;2023-02-18T03:27:15;25.40;;;11.05;;
17595;SDS011;8916;47.086;15.920;2023-02-18T03:29:51;21.63;;;10.85;;
17595;SDS011;8916;47.086;15.920;2023-02-18T03:32:25;19.98;;;10.52;;
17595;SDS011;8916;47.086;15.920;2023-02-18T03:34:59;20.58;;;11.02;;
17595;SDS011;8916;47.086;15.920;2023-02-18T03:37:36;23.00;;;11.60;;
17595;SDS011;8916;47.086;15.920;2023-02-18T03:40:11;21.98;;;10.98;;
17595;SDS011;8916;47.086;15.920;2023-02-18T03:42:41;23.98;;;11.63;;
17595;SDS011;8916;47.086;15.920;2023-02-18T03:45:10;19.50;;;10.35;;
17595;SDS011;8916;47.086;15.920;2023-02-18T03:47:40;19.98;;;10.23;;
17595;SDS011;8916;47.086;15.920;2023-02-18T03:50:10;22.73;;;11.63;;
17595;SDS011;8916;47.086;15.920;2023-02-18T03:52:39;26.10;;;11.35;;
17595;SDS011;8916;47.086;15.920;2023-02-18T03:55:08;22.80;;;11.52;;
17595;SDS011;8916;47.086;15.920;2023-02-18T03:57:39;27.20;;;11.70;;
17595;SDS011;8916;47.086;15.920;2023-02-18T04:00:08;23.75;;;10.95;;
17595;SDS011;8916;47.086;15.920;2023-02-18T04:02:41;24.15;;;11.75;;
17595;SDS011;8916;47.086;15.920;2023-02-18T04:05:11;23.70;;;11.48;;
17595;SDS011;8916;47.086;15.920;2023-02-18T04:07:40;22.63;;;11.20;;
17595;SDS011;8916;47.086;15.920;2023-02-18T04:10:11;20.38;;;11.02;;
17595;SDS011;8916;47.086;15.920;2023-02-18T04:12:40;21.98;;;10.52;;
17595;SDS011;8916;47.086;15.920;2023-02-18T04:15:09;20.77;;;10.38;;
17595;SDS011;8916;47.086;15.920;2023-02-18T04:17:40;23.77;;;10.60;;
17595;SDS011;8916;47.086;15.920;2023-02-18T04:20:09;23.48;;;10.77;;
17595;SDS011;8916;47.086;15.920;2023-02-18T04:22:39;23.15;;;10.82;;
17595;SDS011;8916;47.086;15.920;2023-02-18T04:25:08;27.60;;;9.82;;
17595;SDS011;8916;47.086;15.920;2023-02-18T04:27:39;19.25;;;10.25;;
17595;SDS011;8916;47.086;15.920;2023-02-18T04:30:08;23.70;;;10.20;;
17595;SDS011;8916;47.086;15.920;2023-02-18T04:32:38;18.92;;;9.52;;
17595;SDS011;8916;47.086;15.920;2023-02-18T04:35:08;21.20;;;10.15;;
17595;SDS011;8916;47.086;15.920;2023-02-18T04:37:37;25.90;;;10.32;;
17595;SDS011;8916;47.086;15.920;2023-02-18T04:40:06;23.70;;;9.40;;
17595;SDS011;8916;47.086;15.920;2023-02-18T04:42:38;19.63;;;9.35;;
17595;SDS011;8916;47.086;15.920;2023-02-18T04:45:07;22.58;;;10.35;;
17595;SDS011;8916;47.086;15.920;2023-02-18T04:47:37;18.45;;;10.10;;
17595;SDS011;8916;47.086;15.920;2023-02-18T04:50:06;25.83;;;9.93;;
17595;SDS011;8916;47.086;15.920;2023-02-18T04:52:37;16.90;;;9.90;;
17595;SDS011;8916;47.086;15.920;2023-02-18T04:55:06;19.85;;;9.85;;
17595;SDS011;8916;47.086;15.920;2023-02-18T04:57:35;19.75;;;9.10;;
17595;SDS011;8916;47.086;15.920;2023-02-18T05:00:07;22.08;;;9.95;;
17595;SDS011;8916;47.086;15.920;2023-02-18T05:02:40;17.95;;;9.35;;
17595;SDS011;8916;47.086;15.920;2023-02-18T05:05:09;21.88;;;10.27;;
17595;SDS011;8916;47.086;15.920;2023-02-18T05:07:39;19.33;;;10.05;;
17595;SDS011;8916;47.086;15.920;2023-02-18T05:10:10;29.85;;;13.23;;
17595;SDS011;8916;47.086;15.920;2023-02-18T05:12:43;20.70;;;9.60;;
17595;SDS011;8916;47.086;15.920;2023-02-18T05:15:12;23.77;;;10.32;;
17595;SDS011;8916;47.086;15.920;2023-02-18T05:17:42;22.50;;;8.93;;
17595;SDS011;8916;47.086;15.920;2023-02-18T05:20:11;21.98;;;10.88;;
17595;SDS011;8916;47.086;15.920;2023-02-18T05:22:41;16.95;;;10.02;;
17595;SDS011;8916;47.086;15.920;2023-02-18T05:25:10;19.13;;;9.27;;
17595;SDS011;8916;47.086;15.920;2023-02-18T05:27:39;18.67;;;8.82;;
17595;SDS011;8916;47.086;15.920;2023-02-18T05:30:10;25.30;;;9.57;;
17595;SDS011;8916;47.086;15.920;2023-02-18T05:32:40;17.83;;;9.60;;
17595;SDS011;8916;47.086;15.920;2023-02-18T05:35:09;24.98;;;9.02;;
17595;SDS011;8916;47.086;15.920;2023-02-18T05:37:39;18.02;;;8.60;;
17595;SDS011;8916;47.086;15.920;2023-02-18T05:40:09;20.65;;;9.45;;
17595;SDS011;8916;47.086;15.920;2023-02-18T05:42:39;20.88;;;10.27;;
17595;SDS011;8916;47.086;15.920;2023-02-18T05:45:09;18.20;;;9.30;;
17595;SDS011;8916;47.086;15.920;2023-02-18T05:47:39;15.02;;;8.30;;
17595;SDS011;8916;47.086;15.920;2023-02-18T05:50:08;17.92;;;9.27;;
17595;SDS011;8916;47.086;15.920;2023-02-18T05:52:37;27.05;;;11.50;;
17595;SDS011;8916;47.086;15.920;2023-02-18T05:55:07;22.38;;;9.80;;
17595;SDS011;8916;47.086;15.920;2023-02-18T05:57:36;23.67;;;9.55;;
17595;SDS011;8916;47.086;15.920;2023-02-18T06:00:05;19.98;;;9.43;;
17595;SDS011;8916;47.086;15.920;2023-02-18T06:02:38;18.75;;;9.43;;
17595;SDS011;8916;47.086;15.920;2023-02-18T06:05:07;20.25;;;9.82;;
17595;SDS011;8916;47.086;15.920;2023-02-18T06:07:37;20.42;;;10.35;;
17595;SDS011;8916;47.086;15.920;2023-02-18T06:10:07;22.10;;;10.35;;
17595;SDS011;8916;47.086;15.920;2023-02-18T06:12:38;23.17;;;9.80;;
17595;SDS011;8916;47.086;15.920;2023-02-18T06:15:08;18.67;;;9.65;;
17595;SDS011;8916;47.086;15.920;2023-02-18T06:17:40;26.10;;;11.05;;
17595;SDS011;8916;47.086;15.920;2023-02-18T06:20:10;19.42;;;9.00;;
17595;SDS011;8916;47.086;15.920;2023-02-18T06:22:40;18.75;;;8.80;;
17595;SDS011;8916;47.086;15.920;2023-02-18T06:25:10;18.05;;;9.02;;
17595;SDS011;8916;47.086;15.920;2023-02-18T06:27:40;24.77;;;9.45;;
17595;SDS011;8916;47.086;15.920;2023-02-18T06:30:13;18.77;;;9.50;;
17595;SDS011;8916;47.086;15.920;2023-02-18T06:32:45;19.17;;;9.55;;
17595;SDS011;8916;47.086;15.920;2023-02-18T06:35:15;15.90;;;9.07;;
17595;SDS011;8916;47.086;15.920;2023-02-18T06:37:45;17.38;;;8.93;;
17595;SDS011;8916;47.086;15.920;2023-02-18T06:40:15;13.68;;;8.10;;
17595;SDS011;8916;47.086;15.920;2023-02-18T06:42:47;19.95;;;8.77;;
17595;SDS011;8916;47.086;15.920;2023-02-18T06:45:20;21.27;;;10.38;;
17595;SDS011;8916;47.086;15.920;2023-02-18T06:47:51;23.63;;;11.93;;
17595;SDS011;8916;47.086;15.920;2023-02-18T06:50:21;25.23;;;12.00;;
17595;SDS011;8916;47.086;15.920;2023-02-18T06:52:51;22.42;;;12.05;;
17595;SDS011;8916;47.086;15.920;2023-02-18T06:55:21;23.05;;;11.88;;
17595;SDS011;8916;47.086;15.920;2023-02-18T06:57:51;19.23;;;10.50;;
17595;SDS011;8916;47.086;15.920;2023-02-18T07:00:21;18.70;;;10.55;;
17595;SDS011;8916;47.086;15.920;2023-02-18T07:02:52;19.25;;;9.70;;
17595;SDS011;8916;47.086;15.920;2023-02-18T07:05:22;21.02;;;9.77;;
17595;SDS011;8916;47.086;15.920;2023-02-18T07:07:52;15.23;;;9.40;;
17595;SDS011;8916;47.086;15.920;2023-02-18T07:10:22;17.15;;;9.18;;
17595;SDS011;8916;47.086;15.920;2023-02-18T07:12:53;24.13;;;10.20;;
17595;SDS011;8916;47.086;15.920;2023-02-18T07:15:22;18.60;;;10.07;;
17595;SDS011;8916;47.086;15.920;2023-02-18T07:17:56;18.90;;;10.35;;
17595;SDS011;8916;47.086;15.920;2023-02-18T07:20:26;17.30;;;9.88;;
17595;SDS011;8916;47.086;15.920;2023-02-18T07:22:57;18.30;;;9.93;;
17595;SDS011;8916;47.086;15.920;2023-02-18T07:25:26;17.60;;;8.25;;
17595;SDS011;8916;47.086;15.920;2023-02-18T07:27:56;18.13;;;8.73;;
17595;SDS011;8916;47.086;15.920;2023-02-18T07:30:26;15.88;;;9.10;;
17595;SDS011;8916;47.086;15.920;2023-02-18T07:33:00;15.13;;;8.77;;
17595;SDS011;8916;47.086;15.920;2023-02-18T07:35:30;19.30;;;9.25;;
17595;SDS011;8916;47.086;15.920;2023-02-18T07:38:01;23.27;;;10.40;;
17595;SDS011;8916;47.086;15.920;2023-02-18T07:40:32;18.70;;;9.15;;
17595;SDS011;8916;47.086;15.920;2023-02-18T07:43:02;20.10;;;10.55;;
17595;SDS011;8916;47.086;15.920;2023-02-18T07:45:32;15.63;;;9.27;;
17595;SDS011;8916;47.086;15.920;2023-02-18T07:48:06;18.10;;;10.10;;
17595;SDS011;8916;47.086;15.920;2023-02-18T07:50:37;18.33;;;9.32;;
17595;SDS011;8916;47.086;15.920;2023-02-18T07:53:09;14.93;;;9.02;;
17595;SDS011;8916;47.086;15.920;2023-02-18T07:55:41;17.23;;;9.10;;
17595;SDS011;8916;47.086;15.920;2023-02-18T07:58:17;20.85;;;10.07;;
17595;SDS011;8916;47.086;15.920;2023-02-18T08:00:49;16.05;;;9.55;;
17595;SDS011;8916;47.086;15.920;2023-02-18T08:03:33;17.70;;;9.32;;
17595;SDS011;8916;47.086;15.920;2023-02-18T08:46:06;17.33;;;8.77;;
17595;SDS011;8916;47.086;15.920;2023-02-18T08:48:42;17.45;;;8.52;;
17595;SDS011;8916;47.086;15.920;2023-02-18T08:51:12;28.77;;;14.57;;
17595;SDS011;8916;47.086;15.920;2023-02-18T08:53:43;20.40;;;9.60;;
17595;SDS011;8916;47.086;15.920;2023-02-18T08:56:13;19.70;;;9.68;;
17595;SDS011;8916;47.086;15.920;2023-02-18T08:58:43;21.60;;;10.20;;
17595;SDS011;8916;47.086;15.920;2023-02-18T09:01:14;18.58;;;8.98;;
17595;SDS011;8916;47.086;15.920;2023-02-18T09:03:42;21.35;;;8.82;;
17595;SDS011;8916;47.086;15.920;2023-02-18T09:06:12;17.92;;;8.60;;
17595;SDS011;8916;47.086;15.920;2023-02-18T09:08:41;20.80;;;9.40;;
17595;SDS011;8916;47.086;15.920;2023-02-18T09:11:10;18.58;;;9.20;;
17595;SDS011;8916;47.086;15.920;2023-02-18T09:13:39;17.73;;;9.48;;
17595;SDS011;8916;47.086;15.920;2023-02-18T09:16:10;18.05;;;9.15;;
17595;SDS011;8916;47.086;15.920;2023-02-18T09:18:42;15.25;;;8.38;;
17595;SDS011;8916;47.086;15.920;2023-02-18T09:21:13;18.52;;;9.15;;
17595;SDS011;8916;47.086;15.920;2023-02-18T09:23:48;18.98;;;8.93;;
17595;SDS011;8916;47.086;15.920;2023-02-18T09:26:19;23.02;;;11.00;;
17595;SDS011;8916;47.086;15.920;2023-02-18T09:28:51;25.88;;;12.30;;
17595;SDS011;8916;47.086;15.920;2023-02-18T09:31:24;22.48;;;11.77;;
17595;SDS011;8916;47.086;15.920;2023-02-18T09:33:56;36.35;;;15.20;;
17595;SDS011;8916;47.086;15.920;2023-02-18T09:36:28;26.23;;;11.23;;
17595;SDS011;8916;47.086;15.920;2023-02-18T09:38:57;23.15;;;12.55;;
17595;SDS011;8916;47.086;15.920;2023-02-18T09:41:29;30.02;;;12.73;;
17595;SDS011;8916;47.086;15.920;2023-02-18T09:44:08;26.55;;;13.73;;
17595;SDS011;8916;47.086;15.920;2023-02-18T09:46:45;32.97;;;14.73;;
17595;SDS011;8916;47.086;15.920;2023-02-18T09:49:21;30.35;;;14.85;;
17595;SDS011;8916;47.086;15.920;2023-02-18T09:51:54;26.95;;;13.77;;
17595;SDS011;8916;47.086;15.920;2023-02-18T09:54:28;31.88;;;14.43;;
17595;SDS011;8916;47.086;15.920;2023-02-18T09:56:57;25.90;;;13.55;;
17595;SDS011;8916;47.086;15.920;2023-02-18T09:59:27;21.30;;;11.82;;
17595;SDS011;8916;47.086;15.920;2023-02-18T10:01:58;26.30;;;11.63;;
17595;SDS011;8916;47.086;15.920;2023-02-18T10:04:33;26.85;;;12.50;;
17595;SDS011;8916;47.086;15.920;2023-02-18T10:07:09;30.80;;;13.15;;
17595;SDS011;8916;47.086;15.920;2023-02-18T10:09:49;24.52;;;12.43;;
17595;SDS011;8916;47.086;15.920;2023-02-18T10:12:22;33.17;;;12.80;;
17595;SDS011;8916;47.086;15.920;2023-02-18T10:14:54;21.67;;;12.18;;
17595;SDS011;8916;47.086;15.920;2023-02-18T10:17:26;24.00;;;12.35;;
17595;SDS011;8916;47.086;15.920;2023-02-18T10:20:01;29.30;;;15.48;;
17595;SDS011;8916;47.086;15.920;2023-02-18T10:22:34;24.90;;;13.90;;
17595;SDS011;8916;47.086;15.920;2023-02-18T10:25:06;29.27;;;15.35;;
17595;SDS011;8916;47.086;15.920;2023-02-18T10:27:36;33.88;;;17.35;;
17595;SDS011;8916;47.086;15.920;2023-02-18T10:30:19;31.60;;;16.88;;
17595;SDS011;8916;47.086;15.920;2023-02-18T10:32:54;28.85;;;15.38;;
17595;SDS011;8916;47.086;15.920;2023-02-18T10:35:33;22.90;;;12.73;;
17595;SDS011;8916;47.086;15.920;2023-02-18T10:38:10;21.30;;;12.27;;
17595;SDS011;8916;47.086;15.920;2023-02-18T10:40:49;24.52;;;10.45;;
17595;SDS011;8916;47.086;15.920;2023-02-18T10:43:30;15.15;;;9.40;;
17595;SDS011;8916;47.086;15.920;2023-02-18T10:46:12;22.80;;;10.23;;
17595;SDS011;8916;47.086;15.920;2023-02-18T10:48:53;21.42;;;8.70;;
17595;SDS011;8916;47.086;15.920;2023-02-18T10:51:41;15.80;;;8.95;;
17595;SDS011;8916;47.086;15.920;2023-02-18T10:56:48;15.05;;;8.80;;
17595;SDS011;8916;47.086;15.920;2023-02-18T10:59:19;15.40;;;9.20;;
17595;SDS011;8916;47.086;15.920;2023-02-18T11:01:53;16.63;;;9.45;;
17595;SDS011;8916;47.086;15.920;2023-02-18T11:04:26;18.27;;;8.85;;
17595;SDS011;8916;47.086;15.920;2023-02-18T11:07:06;18.75;;;8.98;;
17595;SDS011;8916;47.086;15.920;2023-02-18T11:09:45;16.98;;;8.82;;
17595;SDS011;8916;47.086;15.920;2023-02-18T11:12:18;18.60;;;9.27;;
17595;SDS011;8916;47.086;15.920;2023-02-18T11:15:03;17.65;;;9.63;;
17595;SDS011;8916;47.086;15.920;2023-02-18T11:17:43;15.70;;;9.20;;
17595;SDS011;8916;47.086;15.920;2023-02-18T11:20:20;16.58;;;8.80;;
17595;SDS011;8916;47.086;15.920;2023-02-18T11:23:14;14.55;;;8.20;;
17595;SDS011;8916;47.086;15.920;2023-02-18T11:25:59;17.02;;;9.13;;
17595;SDS011;8916;47.086;15.920;2023-02-18T11:28:39;15.52;;;9.32;;
17595;SDS011;8916;47.086;15.920;2023-02-18T11:31:15;14.82;;;9.30;;
17595;SDS011;8916;47.086;15.920;2023-02-18T11:33:51;19.92;;;9.15;;
17595;SDS011;8916;47.086;15.920;2023-02-18T11:36:23;15.60;;;8.82;;
17595;SDS011;8916;47.086;15.920;2023-02-18T11:38:58;13.35;;;8.38;;
17595;SDS011;8916;47.086;15.920;2023-02-18T11:41:33;13.55;;;8.90;;
17595;SDS011;8916;47.086;15.920;2023-02-18T11:44:07;16.33;;;9.63;;
17595;SDS011;8916;47.086;15.920;2023-02-18T11:46:56;14.88;;;9.10;;
17595;SDS011;8916;47.086;15.920;2023-02-18T11:49:30;17.27;;;9.15;;
17595;SDS011;8916;47.086;15.920;2023-02-18T11:52:08;14.57;;;9.13;;
17595;SDS011;8916;47.086;15.920;2023-02-18T11:54:59;14.88;;;8.27;;
17595;SDS011;8916;47.086;15.920;2023-02-18T11:57:31;13.02;;;7.88;;
17595;SDS011;8916;47.086;15.920;2023-02-18T12:00:13;14.60;;;8.60;;
17595;SDS011;8916;47.086;15.920;2023-02-18T12:02:51;12.70;;;7.95;;
17595;SDS011;8916;47.086;15.920;2023-02-18T12:05:24;13.38;;;8.30;;
17595;SDS011;8916;47.086;15.920;2023-02-18T12:08:02;15.55;;;9.20;;
17595;SDS011;8916;47.086;15.920;2023-02-18T12:10:39;12.80;;;7.87;;
17595;SDS011;8916;47.086;15.920;2023-02-18T12:13:18;15.35;;;8.48;;
17595;SDS011;8916;47.086;15.920;2023-02-18T12:15:56;14.98;;;7.97;;
17595;SDS011;8916;47.086;15.920;2023-02-18T12:21:44;17.98;;;8.45;;
17595;SDS011;8916;47.086;15.920;2023-02-18T12:24:39;12.35;;;7.38;;
17595;SDS011;8916;47.086;15.920;2023-02-18T12:27:25;16.60;;;9.43;;
17595;SDS011;8916;47.086;15.920;2023-02-18T12:30:07;15.73;;;8.77;;
17595;SDS011;8916;47.086;15.920;2023-02-18T12:33:07;13.40;;;8.68;;
17595;SDS011;8916;47.086;15.920;2023-02-18T12:35:49;17.13;;;8.82;;
17595;SDS011;8916;47.086;15.920;2023-02-18T12:38:39;14.95;;;10.05;;
17595;SDS011;8916;47.086;15.920;2023-02-18T12:44:29;15.88;;;9.65;;
17595;SDS011;8916;47.086;15.920;2023-02-18T12:47:33;17.90;;;10.20;;
17595;SDS011;8916;47.086;15.920;2023-02-18T12:50:24;18.02;;;10.63;;
17595;SDS011;8916;47.086;15.920;2023-02-18T12:53:22;20.50;;;11.43;;
17595;SDS011;8916;47.086;15.920;2023-02-18T12:56:32;20.75;;;12.93;;
17595;SDS011;8916;47.086;15.920;2023-02-18T12:59:27;21.38;;;12.10;;
17595;SDS011;8916;47.086;15.920;2023-02-18T13:02:24;20.48;;;13.55;;
17595;SDS011;8916;47.086;15.920;2023-02-18T13:05:17;17.05;;;10.23;;
17595;SDS011;8916;47.086;15.920;2023-02-18T13:08:02;15.60;;;9.82;;
17595;SDS011;8916;47.086;15.920;2023-02-18T13:10:55;14.10;;;9.00;;
17595;SDS011;8916;47.086;15.920;2023-02-18T13:13:41;15.95;;;9.98;;
17595;SDS011;8916;47.086;15.920;2023-02-18T13:16:19;13.77;;;9.30;;
17595;SDS011;8916;47.086;15.920;2023-02-18T13:18:53;14.35;;;9.48;;
17595;SDS011;8916;47.086;15.920;2023-02-18T13:21:29;13.98;;;8.60;;
17595;SDS011;8916;47.086;15.920;2023-02-18T13:24:00;16.33;;;9.88;;
17595;SDS011;8916;47.086;15.920;2023-02-18T13:26:32;17.13;;;9.98;;
17595;SDS011;8916;47.086;15.920;2023-02-18T13:29:06;14.95;;;10.48;;
17595;SDS011;8916;47.086;15.920;2023-02-18T13:31:54;21.77;;;12.15;;
17595;SDS011;8916;47.086;15.920;2023-02-18T13:34:38;19.40;;;11.80;;
17595;SDS011;8916;47.086;15.920;2023-02-18T13:37:15;18.65;;;11.20;;
17595;SDS011;8916;47.086;15.920;2023-02-18T13:39:53;17.60;;;11.55;;
17595;SDS011;8916;47.086;15.920;2023-02-18T13:42:26;22.23;;;11.98;;
17595;SDS011;8916;47.086;15.920;2023-02-18T13:45:04;18.70;;;11.23;;
17595;SDS011;8916;47.086;15.920;2023-02-18T13:47:56;20.10;;;12.30;;
17595;SDS011;8916;47.086;15.920;2023-02-18T13:50:29;22.02;;;14.05;;
17595;SDS011;8916;47.086;15.920;2023-02-18T13:53:19;22.33;;;13.70;;
17595;SDS011;8916;47.086;15.920;2023-02-18T13:55:52;19.48;;;12.80;;
17595;SDS011;8916;47.086;15.920;2023-02-18T13:58:28;20.15;;;12.90;;
17595;SDS011;8916;47.086;15.920;2023-02-18T14:01:04;20.70;;;12.70;;
17595;SDS011;8916;47.086;15.920;2023-02-18T14:03:51;25.27;;;14.25;;
17595;SDS011;8916;47.086;15.920;2023-02-18T14:06:25;21.95;;;13.73;;
17595;SDS011;8916;47.086;15.920;2023-02-18T14:09:02;25.52;;;15.07;;
17595;SDS011;8916;47.086;15.920;2023-02-18T14:12:16;24.77;;;15.25;;
17595;SDS011;8916;47.086;15.920;2023-02-18T14:14:55;27.75;;;15.70;;
17595;SDS011;8916;47.086;15.920;2023-02-18T14:20:31;29.75;;;18.08;;
17595;SDS011;8916;47.086;15.920;2023-02-18T14:26:29;29.60;;;18.55;;
17595;SDS011;8916;47.086;15.920;2023-02-18T14:29:03;30.63;;;18.45;;
17595;SDS011;8916;47.086;15.920;2023-02-18T14:31:43;31.73;;;19.38;;
17595;SDS011;8916;47.086;15.920;2023-02-18T14:37:51;35.38;;;21.25;;
17595;SDS011;8916;47.086;15.920;2023-02-18T14:41:02;35.95;;;22.05;;
17595;SDS011;8916;47.086;15.920;2023-02-18T14:43:57;36.35;;;22.73;;
17595;SDS011;8916;47.086;15.920;2023-02-18T14:46:50;35.42;;;22.02;;
17595;SDS011;8916;47.086;15.920;2023-02-18T14:49:39;37.25;;;22.30;;
17595;SDS011;8916;47.086;15.920;2023-02-18T14:52:15;34.53;;;22.25;;
17595;SDS011;8916;47.086;15.920;2023-02-18T14:55:00;35.45;;;21.92;;
17595;SDS011;8916;47.086;15.920;2023-02-18T14:57:33;36.38;;;22.52;;
17595;SDS011;8916;47.086;15.920;2023-02-18T15:00:12;37.53;;;23.38;;
17595;SDS011;8916;47.086;15.920;2023-02-18T15:02:46;37.28;;;23.25;;
17595;SDS011;8916;47.086;15.920;2023-02-18T15:05:18;37.75;;;23.55;;
17595;SDS011;8916;47.086;15.920;2023-02-18T15:07:54;37.38;;;22.83;;
17595;SDS011;8916;47.086;15.920;2023-02-18T15:10:32;40.00;;;23.25;;
17595;SDS011;8916;47.086;15.920;2023-02-18T15:13:07;36.50;;;22.80;;
17595;SDS011;8916;47.086;15.920;2023-02-18T15:15:44;39.95;;;23.38;;
17595;SDS011;8916;47.086;15.920;2023-02-18T15:18:20;40.50;;;23.60;;
17595;SDS011;8916;47.086;15.920;2023-02-18T15:20:59;40.78;;;23.70;;
17595;SDS011;8916;47.086;15.920;2023-02-18T15:23:33;44.00;;;25.05;;
17595;SDS011;8916;47.086;15.920;2023-02-18T15:26:06;41.38;;;23.70;;
17595;SDS011;8916;47.086;15.920;2023-02-18T15:28:40;44.22;;;24.52;;
17595;SDS011;8916;47.086;15.920;2023-02-18T15:31:23;47.05;;;25.88;;
17595;SDS011;8916;47.086;15.920;2023-02-18T15:33:54;47.22;;;26.30;;
17595;SDS011;8916;47.086;15.920;2023-02-18T15:36:25;45.83;;;24.98;;
17595;SDS011;8916;47.086;15.920;2023-02-18T15:38:55;42.03;;;24.00;;
17595;SDS011;8916;47.086;15.920;2023-02-18T15:41:35;46.83;;;25.70;;
17595;SDS011;8916;47.086;15.920;2023-02-18T15:44:04;47.92;;;26.30;;
17595;SDS011;8916;47.086;15.920;2023-02-18T15:46:35;42.60;;;23.80;;
17595;SDS011;8916;47.086;15.920;2023-02-18T15:49:05;42.10;;;24.60;;
17595;SDS011;8916;47.086;15.920;2023-02-18T15:51:35;43.05;;;22.85;;
17595;SDS011;8916;47.086;15.920;2023-02-18T15:54:04;46.53;;;24.45;;
17595;SDS011;8916;47.086;15.920;2023-02-18T15:56:36;49.03;;;25.05;;
17595;SDS011;8916;47.086;15.920;2023-02-18T15:59:15;49.17;;;24.52;;
17595;SDS011;8916;47.086;15.920;2023-02-18T16:01:48;45.47;;;24.73;;
17595;SDS011;8916;47.086;15.920;2023-02-18T16:04:19;45.72;;;25.08;;
17595;SDS011;8916;47.086;15.920;2023-02-18T16:06:49;45.90;;;23.98;;
17595;SDS011;8916;47.086;15.920;2023-02-18T16:09:21;56.17;;;25.92;;
17595;SDS011;8916;47.086;15.920;2023-02-18T16:11:56;58.03;;;26.75;;
17595;SDS011;8916;47.086;15.920;2023-02-18T16:14:30;50.50;;;24.27;;
17595;SDS011;8916;47.086;15.920;2023-02-18T16:17:08;50.55;;;25.77;;
17595;SDS011;8916;47.086;15.920;2023-02-18T16:19:45;45.45;;;24.42;;
17595;SDS011;8916;47.086;15.920;2023-02-18T16:25:09;53.40;;;27.05;;